createdAt,value
2019-01-02T00:01:35.815Z,99096.27
2019-01-02T00:04:08.260Z,99099.48
2019-01-02T00:06:40.277Z,99094.25
2019-01-02T00:09:12.719Z,99088.16
2019-01-02T00:11:44.723Z,99105.81
2019-01-02T00:14:16.731Z,99100.83
2019-01-02T00:16:48.959Z,99096.10
2019-01-02T00:19:20.977Z,99098.79
2019-01-02T00:21:53.374Z,99095.98
2019-01-02T00:24:25.456Z,99117.13
2019-01-02T00:26:57.505Z,99114.02
2019-01-02T00:29:29.925Z,99103.41
2019-01-02T00:32:01.893Z,99108.05
2019-01-02T00:34:34.243Z,99105.52
2019-01-02T00:37:06.235Z,99103.27
2019-01-02T00:39:38.552Z,99112.33
2019-01-02T00:42:11.253Z,99125.47
2019-01-02T00:44:43.287Z,99121.12
2019-01-02T00:47:15.264Z,99116.22
2019-01-02T00:49:47.293Z,99130.41
2019-01-02T00:52:19.692Z,99169.05
2019-01-02T00:54:51.702Z,99202.20
2019-01-02T00:57:23.992Z,99185.78
2019-01-02T00:59:55.993Z,99193.00
2019-01-02T01:02:28.421Z,99191.88
2019-01-02T01:05:00.441Z,99207.66
2019-01-02T01:07:32.863Z,99205.59
2019-01-02T01:10:07.799Z,99203.31
2019-01-02T01:12:40.129Z,99201.30
2019-01-02T01:15:12.150Z,99197.22
2019-01-02T01:17:44.471Z,99217.98
2019-01-02T01:20:18.528Z,99227.48
2019-01-02T01:22:50.508Z,99209.72
2019-01-02T01:25:22.923Z,99212.23
2019-01-02T01:27:54.916Z,99215.98
2019-01-02T01:30:26.929Z,99223.59
2019-01-02T01:32:58.887Z,99224.86
2019-01-02T01:35:30.897Z,99235.09
2019-01-02T01:38:02.856Z,99232.45
2019-01-02T01:40:34.836Z,99230.14
2019-01-02T01:43:06.847Z,99220.52
2019-01-02T01:45:39.164Z,99242.03
2019-01-02T01:48:11.137Z,99248.02
2019-01-02T01:50:43.148Z,99251.84
2019-01-02T01:53:15.451Z,99250.62
2019-01-02T01:55:47.418Z,99253.53
2019-01-02T01:58:19.407Z,99255.17
2019-01-02T02:00:51.848Z,99239.45
2019-01-02T02:03:23.845Z,99241.05
2019-01-02T02:05:55.889Z,99241.61
2019-01-02T02:08:28.281Z,99238.94
2019-01-02T02:11:00.307Z,99247.27
2019-01-02T02:13:32.296Z,99255.59
2019-01-02T02:16:04.677Z,99245.48
2019-01-02T02:18:36.660Z,99244.61
2019-01-02T02:21:08.723Z,99252.52
2019-01-02T02:23:40.715Z,99237.17
2019-01-02T02:26:12.680Z,99233.33
2019-01-02T02:28:45.073Z,99228.28
2019-01-02T02:31:17.028Z,99232.67
2019-01-02T02:33:49.258Z,99234.12
2019-01-02T02:36:21.635Z,99235.98
2019-01-02T02:38:53.917Z,99241.38
2019-01-02T02:41:26.209Z,99240.77
2019-01-02T02:43:58.585Z,99237.54
2019-01-02T02:46:30.844Z,99240.39
2019-01-02T02:49:02.841Z,99238.28
2019-01-02T02:51:35.242Z,99237.02
2019-01-02T02:54:07.713Z,99245.67
2019-01-02T02:56:41.493Z,99242.96
2019-01-02T02:59:13.854Z,99265.55
2019-01-02T03:01:46.229Z,99265.91
2019-01-02T03:04:18.307Z,99263.80
2019-01-02T03:06:53.004Z,99259.23
2019-01-02T03:09:24.583Z,99255.95
2019-01-02T03:11:56.611Z,99264.23
2019-01-02T03:14:28.565Z,99268.45
2019-01-02T03:17:00.965Z,99276.50
2019-01-02T03:19:33.241Z,99271.81
2019-01-02T03:22:05.514Z,99266.21
2019-01-02T03:24:37.852Z,99264.42
2019-01-02T03:27:10.125Z,99272.86
2019-01-02T03:29:42.081Z,99271.77
2019-01-02T03:32:14.084Z,99278.79
2019-01-02T03:34:46.457Z,99287.22
2019-01-02T03:37:18.452Z,99281.79
2019-01-02T03:39:50.443Z,99290.67
2019-01-02T03:42:22.421Z,99286.51
2019-01-02T03:44:54.364Z,99289.63
2019-01-02T03:47:26.345Z,99297.55
2019-01-02T03:49:58.284Z,99293.28
2019-01-02T03:52:30.256Z,99299.97
2019-01-02T03:55:02.242Z,99301.08
2019-01-02T03:57:34.237Z,99307.36
2019-01-02T04:00:09.202Z,99305.23
2019-01-02T04:02:41.176Z,99314.19
2019-01-02T04:05:14.991Z,99308.29
2019-01-02T04:07:53.301Z,99308.47
2019-01-02T04:10:26.146Z,99301.08
2019-01-02T04:12:58.142Z,99299.16
2019-01-02T04:15:30.113Z,99301.30
2019-01-02T04:18:02.093Z,99301.53
2019-01-02T04:20:34.060Z,99302.86
2019-01-02T04:23:06.035Z,99298.55
2019-01-02T04:25:37.984Z,99299.27
2019-01-02T04:28:09.995Z,99302.22
2019-01-02T04:30:41.966Z,99302.01
2019-01-02T04:33:13.972Z,99303.89
2019-01-02T04:35:45.935Z,99315.77
2019-01-02T04:38:17.947Z,99323.13
2019-01-02T04:40:49.895Z,99323.64
2019-01-02T04:43:21.866Z,99318.19
2019-01-02T04:45:53.833Z,99314.78
2019-01-02T04:48:25.789Z,99325.92
2019-01-02T04:50:57.779Z,99333.49
2019-01-02T04:53:29.830Z,99337.13
2019-01-02T04:56:03.420Z,99337.28
2019-01-02T04:58:35.551Z,99339.52
2019-01-02T05:01:07.540Z,99335.58
2019-01-02T05:03:39.495Z,99329.67
2019-01-02T05:06:11.608Z,99314.30
2019-01-02T05:08:43.584Z,99326.81
2019-01-02T05:11:15.609Z,99338.17
2019-01-02T05:13:47.576Z,99348.98
2019-01-02T05:16:19.546Z,99343.00
2019-01-02T05:18:51.558Z,99342.97
2019-01-02T05:21:23.586Z,99335.20
2019-01-02T05:23:55.839Z,99342.04
2019-01-02T05:26:27.805Z,99344.20
2019-01-02T05:28:59.767Z,99335.20
2019-01-02T05:31:31.961Z,99336.84
2019-01-02T05:34:03.923Z,99335.58
2019-01-02T05:36:35.931Z,99327.78
2019-01-02T05:39:07.973Z,99333.42
2019-01-02T05:41:39.968Z,99329.64
2019-01-02T05:44:11.939Z,99329.42
2019-01-02T05:46:43.949Z,99327.64
2019-01-02T05:49:15.908Z,99327.81
2019-01-02T05:51:47.892Z,99331.42
2019-01-02T05:54:20.132Z,99325.96
2019-01-02T05:56:52.146Z,99326.00
2019-01-02T05:59:24.111Z,99326.89
2019-01-02T06:01:56.119Z,99328.67
2019-01-02T06:04:28.111Z,99319.47
2019-01-02T06:07:00.080Z,99322.47
2019-01-02T06:09:32.058Z,99321.09
2019-01-02T06:12:04.077Z,99297.06
2019-01-02T06:14:36.141Z,99308.02
2019-01-02T06:17:08.131Z,99315.14
2019-01-02T06:19:40.141Z,99311.14
2019-01-02T06:22:12.137Z,99309.14
2019-01-02T06:24:44.175Z,99307.61
2019-01-02T06:27:16.155Z,99304.05
2019-01-02T06:29:48.165Z,99304.31
2019-01-02T06:32:20.146Z,99312.55
2019-01-02T06:34:52.164Z,99310.22
2019-01-02T06:37:24.162Z,99311.55
2019-01-02T06:39:56.168Z,99307.98
2019-01-02T06:42:28.141Z,99321.77
2019-01-02T06:45:00.208Z,99320.80
2019-01-02T06:47:32.252Z,99314.41
2019-01-02T06:50:07.062Z,99299.67
2019-01-02T06:52:39.064Z,99307.77
2019-01-02T06:55:11.087Z,99316.45
2019-01-02T06:57:43.045Z,99322.58
2019-01-02T07:00:36.556Z,99320.95
2019-01-02T07:03:08.544Z,99333.35
2019-01-02T07:05:40.527Z,99335.36
2019-01-02T07:08:12.491Z,99338.44
2019-01-02T07:10:44.524Z,99344.91
2019-01-02T07:13:16.516Z,99346.88
2019-01-02T07:15:48.594Z,99341.97
2019-01-02T07:18:20.553Z,99355.16
2019-01-02T07:20:52.836Z,99367.26
2019-01-02T07:23:24.796Z,99368.97
2019-01-02T07:25:56.823Z,99374.03
2019-01-02T07:28:28.793Z,99375.06
2019-01-02T07:31:00.827Z,99379.97
2019-01-02T07:34:23.467Z,99378.37
2019-01-02T07:37:20.222Z,99371.95
2019-01-02T07:40:26.844Z,99376.99
2019-01-02T07:43:34.994Z,99388.25
2019-01-02T07:46:53.229Z,99393.49
2019-01-02T07:50:18.116Z,99406.61
2019-01-02T07:53:19.095Z,99398.69
2019-01-02T07:56:27.554Z,99399.13
2019-01-02T07:59:45.255Z,99402.89
2019-01-02T08:02:44.264Z,99408.83
2019-01-02T08:06:05.483Z,99403.30
2019-01-02T08:09:28.343Z,99415.30
2019-01-02T08:12:31.275Z,99415.48
2019-01-02T08:15:56.903Z,99420.88
2019-01-02T08:19:15.793Z,99422.51
2019-01-02T08:22:43.488Z,99423.40
2019-01-02T08:25:41.495Z,99423.43
2019-01-02T08:29:00.634Z,99434.27
2019-01-02T08:32:11.433Z,99431.53
2019-01-02T08:35:09.508Z,99426.14
2019-01-02T08:38:21.096Z,99430.48
2019-01-02T08:41:36.277Z,99429.16
2019-01-02T08:44:34.144Z,99428.82
2019-01-02T08:47:44.047Z,99428.79
2019-01-02T08:50:53.679Z,99429.58
2019-01-02T08:54:01.738Z,99437.37
2019-01-02T08:57:36.517Z,99443.51
2019-01-02T09:00:58.225Z,99445.52
2019-01-02T09:04:20.948Z,99446.22
2019-01-02T09:07:36.702Z,99451.23
2019-01-02T09:10:50.946Z,99458.27
2019-01-02T09:14:04.708Z,99458.45
2019-01-02T09:17:04.560Z,99461.13
2019-01-02T09:20:09.085Z,99458.34
2019-01-02T09:23:28.718Z,99455.17
2019-01-02T09:26:33.183Z,99457.63
2019-01-02T09:29:37.727Z,99453.89
2019-01-02T09:32:43.678Z,99453.23
2019-01-02T09:35:42.277Z,99450.86
2019-01-02T09:38:43.058Z,99442.91
2019-01-02T09:41:42.707Z,99457.28
2019-01-02T09:45:08.839Z,99463.06
2019-01-02T09:48:01.473Z,99464.00
2019-01-02T09:50:59.436Z,99464.61
2019-01-02T09:54:24.699Z,99467.95
2019-01-02T09:57:32.482Z,99466.49
2019-01-02T10:01:07.576Z,99461.86
2019-01-02T10:04:35.788Z,99461.63
2019-01-02T10:07:29.341Z,99459.23
2019-01-02T10:10:37.826Z,99439.89
2019-01-02T10:14:12.998Z,99444.89
2019-01-02T10:17:28.590Z,99435.72
2019-01-02T10:20:30.994Z,99410.38
2019-01-02T10:23:39.383Z,99419.88
2019-01-02T10:26:28.898Z,99429.95
2019-01-02T10:29:45.913Z,99433.92
2019-01-02T10:32:49.286Z,99426.16
2019-01-02T10:35:46.857Z,99419.36
2019-01-02T10:39:09.602Z,99431.78
2019-01-02T10:42:41.801Z,99430.56
2019-01-02T10:45:39.940Z,99431.63
2019-01-02T10:48:55.846Z,99432.34
2019-01-02T10:52:23.488Z,99433.47
2019-01-02T10:55:23.176Z,99433.61
2019-01-02T10:58:36.638Z,99416.38
2019-01-02T11:01:52.593Z,99413.80
2019-01-02T11:05:05.522Z,99409.14
2019-01-02T11:08:05.998Z,99411.02
2019-01-02T11:11:34.696Z,99407.80
2019-01-02T11:14:50.561Z,99400.02
2019-01-02T11:17:47.267Z,99408.34
2019-01-02T11:21:22.583Z,99411.23
2019-01-02T11:24:39.465Z,99405.25
2019-01-02T11:27:52.848Z,99401.06
2019-01-02T11:30:41.038Z,99399.66
2019-01-02T11:33:41.064Z,99402.61
2019-01-02T11:37:04.129Z,99403.39
2019-01-02T11:40:12.620Z,99395.14
2019-01-02T11:43:22.025Z,99392.77
2019-01-02T11:45:54.025Z,99386.83
2019-01-02T11:48:26.068Z,99383.27
2019-01-02T11:50:58.043Z,99385.80
2019-01-02T11:53:30.072Z,99394.92
2019-01-02T11:56:02.089Z,99401.62
2019-01-02T11:58:34.110Z,99391.41
2019-01-02T12:01:06.121Z,99394.51
2019-01-02T12:03:38.145Z,99384.29
2019-01-02T12:06:10.128Z,99387.09
2019-01-02T12:08:42.187Z,99383.53
2019-01-02T12:11:14.231Z,99381.47
2019-01-02T12:13:46.282Z,99376.97
2019-01-02T12:16:18.318Z,99374.48
2019-01-02T12:18:50.317Z,99373.05
2019-01-02T12:21:22.338Z,99376.08
2019-01-02T12:23:54.378Z,99371.78
2019-01-02T12:26:26.532Z,99386.20
2019-01-02T12:28:58.598Z,99379.56
2019-01-02T12:31:30.617Z,99381.63
2019-01-02T12:34:02.652Z,99385.42
2019-01-02T12:36:34.666Z,99385.50
2019-01-02T12:39:06.798Z,99372.36
2019-01-02T12:41:38.795Z,99373.45
2019-01-02T12:44:10.785Z,99378.27
2019-01-02T12:46:42.825Z,99367.70
2019-01-02T12:49:14.827Z,99375.23
2019-01-02T12:51:46.887Z,99375.78
2019-01-02T12:54:18.898Z,99368.09
2019-01-02T12:56:50.909Z,99360.75
2019-01-02T12:59:25.505Z,99355.19
2019-01-02T13:02:36.535Z,99352.14
2019-01-02T13:05:47.416Z,99355.56
2019-01-02T13:08:58.334Z,99351.22
2019-01-02T13:12:09.291Z,99351.00
2019-01-02T13:15:05.290Z,99351.26
2019-01-02T13:18:16.251Z,99352.09
2019-01-02T13:21:15.378Z,99349.48
2019-01-02T13:24:15.159Z,99359.42
2019-01-02T13:26:53.510Z,99363.80
2019-01-02T13:30:04.563Z,99364.05
2019-01-02T13:33:00.188Z,99373.30
2019-01-02T13:36:11.130Z,99368.09
2019-01-02T13:39:22.032Z,99371.27
2019-01-02T13:42:27.018Z,99371.59
2019-01-02T13:45:21.594Z,99378.80
2019-01-02T13:48:32.559Z,99390.84
2019-01-02T13:51:09.062Z,99382.96
2019-01-02T13:53:41.088Z,99382.34
2019-01-02T13:56:16.655Z,99389.48
2019-01-02T13:58:48.710Z,99392.98
2019-01-02T14:01:20.740Z,99394.55
2019-01-02T14:03:55.947Z,99386.17
2019-01-02T14:06:27.949Z,99378.69
2019-01-02T14:08:59.986Z,99398.53
2019-01-02T14:11:32.025Z,99391.89
2019-01-02T14:14:04.037Z,99395.48
2019-01-02T14:16:36.051Z,99393.60
2019-01-02T14:19:08.133Z,99389.88
2019-01-02T14:21:40.160Z,99399.23
2019-01-02T14:24:12.157Z,99407.20
2019-01-02T14:26:44.287Z,99402.58
2019-01-02T14:29:16.320Z,99408.19
2019-01-02T14:31:48.353Z,99404.98
2019-01-02T14:34:20.397Z,99417.84
2019-01-02T14:36:52.430Z,99421.36
2019-01-02T14:39:24.456Z,99425.23
2019-01-02T14:41:56.475Z,99420.76
2019-01-02T14:44:28.460Z,99438.48
2019-01-02T14:47:00.519Z,99445.45
2019-01-02T14:49:32.527Z,99447.64
2019-01-02T14:52:04.548Z,99469.78
2019-01-02T14:54:36.545Z,99467.14
2019-01-02T14:57:08.572Z,99476.80
2019-01-02T14:59:40.562Z,99483.44
2019-01-02T15:02:12.647Z,99488.05
2019-01-02T15:04:44.632Z,99487.31
2019-01-02T15:07:16.712Z,99484.64
2019-01-02T15:09:48.742Z,99485.59
2019-01-02T15:12:20.818Z,99496.61
2019-01-02T15:14:52.858Z,99495.55
2019-01-02T15:17:25.316Z,99497.70
2019-01-02T15:19:58.835Z,99507.80
2019-01-02T15:22:30.890Z,99513.06
2019-01-02T15:25:02.992Z,99513.77
2019-01-02T15:27:34.977Z,99517.95
2019-01-02T15:30:10.318Z,99523.55
2019-01-02T15:32:42.356Z,99525.91
2019-01-02T15:35:14.372Z,99529.53
2019-01-02T15:37:46.397Z,99525.75
2019-01-02T15:40:18.370Z,99521.64
2019-01-02T15:42:50.416Z,99525.78
2019-01-02T15:45:22.394Z,99533.17
2019-01-02T15:47:54.453Z,99538.61
2019-01-02T15:50:26.459Z,99540.56
2019-01-02T15:52:58.593Z,99546.34
2019-01-02T15:55:30.649Z,99538.23
2019-01-02T15:58:02.799Z,99544.16
2019-01-02T16:00:34.833Z,99555.38
2019-01-02T16:03:06.865Z,99562.20
2019-01-02T16:05:38.879Z,99556.97
2019-01-02T16:08:10.906Z,99560.42
2019-01-02T16:11:02.511Z,99571.98
2019-01-02T16:13:34.538Z,99568.37
2019-01-02T16:16:06.597Z,99573.06
2019-01-02T16:18:38.793Z,99580.78
2019-01-02T16:27:44.996Z,99590.89
2019-01-02T16:30:17.024Z,99597.58
2019-01-02T16:32:49.055Z,99603.52
2019-01-02T16:35:21.081Z,99608.73
2019-01-02T16:37:53.123Z,99613.24
2019-01-02T16:40:25.207Z,99619.39
2019-01-02T16:42:57.219Z,99622.08
2019-01-02T16:45:29.337Z,99632.71
2019-01-02T16:48:01.365Z,99635.78
2019-01-02T16:50:33.411Z,99639.89
2019-01-02T16:53:05.473Z,99647.46
2019-01-02T16:55:37.503Z,99649.63
2019-01-02T16:58:09.581Z,99643.14
2019-01-02T17:00:41.693Z,99647.47
2019-01-02T17:03:13.779Z,99655.92
2019-01-02T17:05:45.810Z,99651.80
2019-01-02T17:08:17.842Z,99651.06
2019-01-02T17:10:49.872Z,99657.57
2019-01-02T17:13:21.982Z,99657.37
2019-01-02T17:15:53.991Z,99657.20
2019-01-02T17:18:26.030Z,99657.00
2019-01-02T17:20:58.065Z,99662.77
2019-01-02T17:23:30.117Z,99673.42
2019-01-02T17:26:02.137Z,99677.91
2019-01-02T17:28:34.306Z,99680.99
2019-01-02T17:31:06.316Z,99682.23
2019-01-02T17:33:38.370Z,99684.05
2019-01-02T17:36:10.334Z,99695.20
2019-01-02T17:38:42.374Z,99695.17
2019-01-02T17:41:14.420Z,99690.66
2019-01-02T17:43:46.485Z,99687.58
2019-01-02T17:46:18.540Z,99697.30
2019-01-02T17:48:50.559Z,99701.44
2019-01-02T17:51:22.572Z,99692.98
2019-01-02T17:53:55.896Z,99699.08
2019-01-02T17:56:27.961Z,99704.65
2019-01-02T17:59:00.018Z,99709.53
2019-01-02T18:01:32.056Z,99709.69
2019-01-02T18:04:04.098Z,99718.71
2019-01-02T18:06:36.265Z,99716.19
2019-01-02T18:09:08.525Z,99715.62
2019-01-02T18:11:40.637Z,99724.08
2019-01-02T18:14:12.758Z,99729.11
2019-01-02T18:16:44.748Z,99732.31
2019-01-02T18:19:17.145Z,99730.00
2019-01-02T18:21:49.206Z,99733.05
2019-01-02T18:24:21.333Z,99731.93
2019-01-02T18:26:53.346Z,99741.27
2019-01-02T18:29:25.377Z,99738.53
2019-01-02T18:31:57.456Z,99745.05
2019-01-02T18:34:29.521Z,99742.84
2019-01-02T18:37:01.597Z,99746.91
2019-01-02T18:39:34.150Z,99744.81
2019-01-02T18:42:06.360Z,99754.69
2019-01-02T18:44:38.446Z,99753.59
2019-01-02T18:47:10.606Z,99752.31
2019-01-02T18:49:42.661Z,99752.53
2019-01-02T18:52:14.701Z,99754.30
2019-01-02T18:54:46.758Z,99753.92
2019-01-02T18:57:18.803Z,99754.61
2019-01-02T18:59:50.876Z,99751.78
2019-01-02T19:02:22.980Z,99758.36
2019-01-02T19:04:55.039Z,99745.77
2019-01-02T19:07:27.163Z,99751.68
2019-01-02T19:09:59.219Z,99757.09
2019-01-02T19:12:31.287Z,99754.37
2019-01-02T19:15:04.120Z,99749.85
2019-01-02T19:17:36.234Z,99753.97
2019-01-02T19:20:08.219Z,99753.97
2019-01-02T19:22:40.370Z,99755.59
2019-01-02T19:25:12.473Z,99754.49
2019-01-02T19:27:44.539Z,99755.01
2019-01-02T19:30:16.617Z,99760.27
2019-01-02T19:32:48.779Z,99753.95
2019-01-02T19:35:20.940Z,99755.38
2019-01-02T19:37:53.058Z,99758.41
2019-01-02T19:40:25.159Z,99763.80
2019-01-02T19:42:57.234Z,99768.78
2019-01-02T19:45:29.330Z,99774.50
2019-01-02T19:48:01.561Z,99773.70
2019-01-02T19:50:33.636Z,99774.43
2019-01-02T19:53:05.711Z,99775.84
2019-01-02T19:55:37.789Z,99776.33
2019-01-02T19:58:09.873Z,99781.68
2019-01-02T20:00:41.934Z,99790.61
2019-01-02T20:03:14.007Z,99789.35
2019-01-02T20:05:46.098Z,99788.97
2019-01-02T20:08:18.181Z,99793.41
2019-01-02T20:10:50.315Z,99795.77
2019-01-02T20:13:22.526Z,99791.91
2019-01-02T20:16:22.027Z,99793.14
2019-01-02T20:18:54.122Z,99797.20
2019-01-02T20:21:26.178Z,99795.41
2019-01-02T20:23:58.272Z,99793.02
2019-01-02T20:26:31.752Z,99795.50
2019-01-02T20:29:04.060Z,99790.33
2019-01-02T20:31:36.146Z,99790.23
2019-01-02T20:34:08.164Z,99790.11
2019-01-02T20:36:40.786Z,99799.99
2019-01-02T20:39:13.216Z,99796.73
2019-01-02T20:41:45.310Z,99799.06
2019-01-02T20:44:17.330Z,99799.12
2019-01-02T20:46:49.430Z,99803.77
2019-01-02T20:49:21.495Z,99806.19
2019-01-02T20:51:53.617Z,99810.46
2019-01-02T20:54:25.630Z,99805.66
2019-01-02T20:56:57.722Z,99802.46
2019-01-02T20:59:29.741Z,99803.61
2019-01-02T21:02:01.813Z,99801.13
2019-01-02T21:04:33.884Z,99801.46
2019-01-02T21:07:05.963Z,99806.12
2019-01-02T21:09:37.962Z,99809.00
2019-01-02T21:12:09.997Z,99811.30
2019-01-02T21:14:42.101Z,99807.75
2019-01-02T21:17:14.159Z,99812.91
2019-01-02T21:19:46.227Z,99813.92
2019-01-02T21:22:18.304Z,99814.03
2019-01-02T21:24:50.347Z,99808.97
2019-01-02T21:27:22.364Z,99819.16
2019-01-02T21:29:54.406Z,99813.20
2019-01-02T21:32:26.450Z,99828.89
2019-01-02T21:34:58.509Z,99819.34
2019-01-02T21:37:30.645Z,99827.06
2019-01-02T21:40:03.011Z,99822.53
2019-01-02T21:42:35.139Z,99817.51
2019-01-02T21:45:07.291Z,99818.02
2019-01-02T21:47:39.384Z,99817.69
2019-01-02T21:50:11.388Z,99821.73
2019-01-02T21:52:43.450Z,99826.77
2019-01-02T21:55:15.519Z,99829.73
2019-01-02T21:57:48.167Z,99831.13
2019-01-02T22:00:20.358Z,99835.08
2019-01-02T22:02:52.483Z,99838.67
2019-01-02T22:05:24.505Z,99848.09
2019-01-02T22:07:56.571Z,99844.15
2019-01-02T22:10:28.618Z,99842.94
2019-01-02T22:13:00.791Z,99851.59
2019-01-02T22:15:32.860Z,99853.06
2019-01-02T22:18:05.079Z,99860.23
2019-01-02T22:20:37.119Z,99856.83
2019-01-02T22:23:09.224Z,99853.41
2019-01-02T22:25:41.223Z,99854.09
2019-01-02T22:28:13.284Z,99854.99
2019-01-02T22:30:45.352Z,99857.23
2019-01-02T22:33:17.411Z,99864.63
2019-01-02T22:35:49.484Z,99866.55
2019-01-02T22:38:21.516Z,99867.02
2019-01-02T22:40:53.574Z,99869.30
2019-01-02T22:43:25.615Z,99874.33
2019-01-02T22:45:57.666Z,99870.78
2019-01-02T22:48:29.701Z,99880.73
2019-01-02T22:51:01.762Z,99879.76
2019-01-02T22:53:33.793Z,99885.77
2019-01-02T22:56:06.798Z,99886.22
2019-01-02T22:58:39.054Z,99898.19
2019-01-02T23:01:39.767Z,99898.19
2019-01-02T23:04:21.781Z,99893.08
2019-01-02T23:07:11.978Z,99903.61
2019-01-02T23:10:06.227Z,99907.78
2019-01-02T23:13:03.667Z,99908.86
2019-01-02T23:15:54.100Z,99917.95
2019-01-02T23:18:44.580Z,99919.47
2019-01-02T23:21:35.054Z,99922.83
2019-01-02T23:24:42.008Z,99921.80
2019-01-02T23:27:32.344Z,99927.03
2019-01-02T23:30:23.424Z,99926.19
2019-01-02T23:33:30.504Z,99919.91
2019-01-02T23:36:20.661Z,99919.50
2019-01-02T23:39:11.449Z,99925.50
2019-01-02T23:42:01.951Z,99919.98
2019-01-02T23:44:52.404Z,99923.40
2019-01-02T23:47:42.658Z,99925.14
2019-01-02T23:50:33.091Z,99929.40
2019-01-02T23:53:33.940Z,99929.98
2019-01-02T23:56:24.247Z,99927.88
2019-01-02T23:59:24.891Z,99930.47
